createdAt,value
2023-02-24T00:00:32.556Z,63.79
2023-02-24T00:03:06.270Z,62.88
2023-02-24T00:05:39.819Z,62.49
2023-02-24T00:08:07.005Z,62.29
2023-02-24T00:10:34.342Z,62.36
2023-02-24T00:13:01.459Z,63.01
2023-02-24T00:15:28.686Z,63.67
2023-02-24T00:17:55.773Z,63.63
2023-02-24T00:20:23.007Z,63.02
2023-02-24T00:22:50.020Z,63.02
2023-02-24T00:25:17.391Z,62.43
2023-02-24T00:27:44.486Z,62.61
2023-02-24T00:30:12.397Z,62.64
2023-02-24T00:32:40.031Z,63.81
2023-02-24T00:35:09.121Z,63.38
2023-02-24T00:37:36.207Z,63.85
2023-02-24T00:40:11.065Z,63.74
2023-02-24T00:42:39.930Z,63.61
2023-02-24T00:45:10.404Z,63.59
2023-02-24T00:47:40.051Z,63.46
2023-02-24T00:50:08.388Z,63.07
2023-02-24T00:52:37.000Z,63.34
2023-02-24T00:55:15.162Z,64.36
2023-02-24T00:57:42.277Z,63.84
2023-02-24T01:00:13.218Z,62.87
2023-02-24T01:02:40.297Z,62.68
2023-02-24T01:05:09.695Z,62.28
2023-02-24T01:07:36.740Z,62.91
2023-02-24T01:10:08.732Z,63.11
2023-02-24T01:12:38.588Z,62.73
2023-02-24T01:15:09.194Z,63.25
2023-02-24T01:17:37.882Z,63.09
2023-02-24T01:20:16.640Z,63.25
2023-02-24T01:22:50.560Z,63.29
2023-02-24T01:25:20.382Z,63.09
2023-02-24T01:27:47.959Z,62.86
2023-02-24T01:30:18.735Z,63.20
2023-02-24T01:32:47.336Z,63.78
2023-02-24T01:35:15.205Z,63.26
2023-02-24T01:37:43.201Z,63.85
2023-02-24T01:40:18.697Z,63.99
2023-02-24T01:42:47.709Z,64.16
2023-02-24T01:45:21.386Z,62.98
2023-02-24T01:47:49.739Z,61.89
2023-02-24T01:50:21.804Z,61.37
2023-02-24T01:52:56.258Z,61.68
2023-02-24T01:55:32.832Z,61.55
2023-02-24T01:58:06.021Z,61.48
2023-02-24T02:00:44.910Z,61.79
2023-02-24T02:03:30.636Z,62.00
2023-02-24T02:06:08.019Z,62.58
2023-02-24T02:08:40.791Z,61.70
2023-02-24T02:11:20.356Z,61.59
2023-02-24T02:13:50.528Z,61.91
2023-02-24T02:16:45.414Z,61.14
2023-02-24T02:19:24.300Z,60.84
2023-02-24T02:22:47.574Z,60.43
2023-02-24T02:25:30.113Z,60.52
2023-02-24T02:28:16.976Z,61.03
2023-02-24T02:30:55.656Z,61.08
2023-02-24T02:33:45.167Z,60.71
2023-02-24T02:36:45.355Z,60.71
2023-02-24T02:39:16.602Z,61.09
2023-02-24T02:42:01.673Z,62.00
2023-02-24T02:44:55.906Z,62.93
2023-02-24T02:48:09.197Z,62.79
2023-02-24T02:50:49.037Z,62.78
2023-02-24T02:53:54.683Z,62.56
2023-02-24T02:56:35.417Z,62.89
2023-02-24T02:59:05.473Z,62.38
2023-02-24T03:01:38.146Z,62.26
2023-02-24T03:04:08.586Z,63.16
2023-02-24T03:06:57.444Z,63.42
2023-02-24T03:09:38.240Z,63.89
2023-02-24T03:12:19.467Z,64.21
2023-02-24T03:14:59.136Z,64.59
2023-02-24T03:17:40.863Z,64.40
2023-02-24T03:20:28.990Z,64.26
2023-02-24T03:23:16.894Z,65.16
2023-02-24T03:26:23.803Z,65.35
2023-02-24T03:29:36.571Z,65.37
2023-02-24T03:32:09.666Z,65.33
2023-02-24T03:35:12.738Z,65.22
2023-02-24T03:37:41.171Z,65.42
2023-02-24T03:40:14.680Z,65.91
2023-02-24T03:42:47.931Z,66.49
2023-02-24T03:45:17.375Z,66.03
2023-02-24T03:47:47.708Z,66.62
2023-02-24T03:50:22.064Z,65.97
2023-02-24T03:53:09.713Z,65.76
2023-02-24T03:55:43.072Z,65.73
2023-02-24T03:58:27.900Z,65.67
2023-02-24T04:01:31.022Z,65.59
2023-02-24T04:04:12.145Z,65.98
2023-02-24T04:06:56.533Z,66.48
2023-02-24T04:09:39.499Z,66.37
2023-02-24T04:12:20.395Z,66.46
2023-02-24T04:15:32.228Z,66.32
2023-02-24T04:18:27.676Z,66.49
2023-02-24T04:20:59.768Z,65.76
2023-02-24T04:23:41.547Z,65.54
2023-02-24T04:26:12.852Z,64.86
2023-02-24T04:28:42.999Z,64.54
2023-02-24T04:31:18.333Z,64.26
2023-02-24T04:33:50.430Z,64.12
2023-02-24T04:36:21.831Z,63.01
2023-02-24T04:38:49.860Z,62.84
2023-02-24T04:41:21.406Z,62.87
2023-02-24T04:43:52.101Z,63.02
2023-02-24T04:46:20.274Z,62.61
2023-02-24T04:48:47.432Z,62.24
2023-02-24T04:51:14.629Z,61.47
2023-02-24T04:53:41.964Z,61.56
2023-02-24T04:56:09.496Z,60.91
2023-02-24T04:58:39.325Z,60.68
2023-02-24T05:01:11.270Z,61.00
2023-02-24T05:03:42.348Z,60.56
2023-02-24T05:06:16.764Z,60.57
2023-02-24T05:08:44.653Z,60.70
2023-02-24T05:11:16.726Z,60.73
2023-02-24T05:13:47.728Z,61.01
2023-02-24T05:16:18.125Z,60.92
2023-02-24T05:18:45.647Z,60.95
2023-02-24T05:21:34.641Z,60.54
2023-02-24T05:24:06.811Z,61.01
2023-02-24T05:26:38.068Z,62.46
2023-02-24T05:29:06.931Z,63.19
2023-02-24T05:31:34.963Z,62.78
2023-02-24T05:34:06.834Z,62.51
2023-02-24T05:36:40.257Z,61.85
2023-02-24T05:39:12.011Z,62.47
2023-02-24T05:41:42.384Z,62.62
2023-02-24T05:44:16.110Z,62.22
2023-02-24T05:46:46.697Z,62.46
2023-02-24T05:49:31.293Z,62.70
2023-02-24T05:52:01.605Z,63.03
2023-02-24T05:54:37.325Z,62.81
2023-02-24T05:57:09.417Z,63.46
2023-02-24T05:59:36.610Z,63.99
2023-02-24T06:02:09.331Z,64.22
2023-02-24T06:04:50.733Z,64.68
2023-02-24T06:07:22.732Z,64.42
2023-02-24T06:09:57.108Z,63.67
2023-02-24T06:12:34.044Z,63.65
2023-02-24T06:15:07.398Z,64.26
2023-02-24T06:17:34.835Z,64.81
2023-02-24T06:20:02.115Z,63.05
2023-02-24T06:22:29.299Z,62.58
2023-02-24T06:24:56.695Z,61.56
2023-02-24T06:27:25.353Z,61.93
2023-02-24T06:29:56.707Z,61.84
2023-02-24T06:32:26.707Z,62.03
2023-02-24T06:34:54.711Z,62.15
2023-02-24T06:37:23.105Z,61.64
2023-02-24T06:39:50.465Z,61.92
2023-02-24T06:42:17.538Z,62.49
2023-02-24T06:44:45.328Z,61.97
2023-02-24T06:47:14.646Z,61.90
2023-02-24T06:49:44.851Z,61.73
2023-02-24T06:52:18.434Z,61.63
2023-02-24T06:54:49.513Z,61.27
2023-02-24T06:57:17.409Z,61.25
2023-02-24T06:59:46.097Z,60.98
2023-02-24T07:02:13.259Z,60.55
2023-02-24T07:04:47.583Z,61.03
2023-02-24T07:07:14.838Z,60.82
2023-02-24T07:09:42.846Z,60.62
2023-02-24T07:12:12.542Z,60.09
2023-02-24T07:14:40.510Z,60.16
2023-02-24T07:17:08.430Z,60.36
2023-02-24T07:19:35.795Z,59.84
2023-02-24T07:22:03.766Z,60.90
2023-02-24T07:24:39.290Z,60.75
2023-02-24T07:27:08.448Z,60.56
2023-02-24T07:29:37.777Z,59.76
2023-02-24T07:32:08.978Z,58.73
2023-02-24T07:34:40.437Z,58.45
2023-02-24T07:37:09.235Z,56.51
2023-02-24T07:39:40.281Z,56.45
2023-02-24T07:42:10.068Z,56.85
2023-02-24T07:44:46.540Z,56.98
2023-02-24T07:47:15.935Z,57.16
2023-02-24T07:49:43.759Z,55.75
2023-02-24T07:52:11.666Z,56.46
2023-02-24T07:54:39.391Z,56.04
2023-02-24T07:57:13.531Z,55.38
2023-02-24T07:59:45.519Z,55.43
2023-02-24T08:02:13.824Z,54.90
2023-02-24T08:04:44.429Z,54.30
2023-02-24T08:07:14.510Z,54.44
2023-02-24T08:09:45.134Z,55.00
2023-02-24T08:12:22.424Z,54.44
2023-02-24T08:14:53.190Z,54.40
2023-02-24T08:17:26.878Z,54.23
2023-02-24T08:20:22.043Z,54.10
2023-02-24T08:22:54.416Z,53.60
2023-02-24T08:25:36.281Z,53.84
2023-02-24T08:28:11.539Z,54.10
2023-02-24T08:30:47.076Z,54.57
2023-02-24T08:33:22.072Z,54.33
2023-02-24T08:36:02.567Z,54.23
2023-02-24T08:38:42.070Z,54.28
2023-02-24T08:41:26.747Z,53.65
2023-02-24T08:43:53.878Z,53.57
2023-02-24T08:46:32.867Z,53.83
2023-02-24T08:49:01.191Z,53.18
2023-02-24T08:51:36.020Z,53.66
2023-02-24T08:54:11.279Z,54.03
2023-02-24T08:56:43.534Z,53.54
2023-02-24T08:59:34.482Z,53.37
2023-02-24T09:02:40.378Z,53.16
2023-02-24T09:05:14.425Z,53.04
2023-02-24T09:07:42.625Z,52.26
2023-02-24T09:10:20.970Z,52.36
2023-02-24T09:12:49.279Z,51.68
2023-02-24T09:15:16.547Z,51.84
2023-02-24T09:17:45.822Z,51.94
2023-02-24T09:20:35.746Z,52.22
2023-02-24T09:23:04.216Z,52.46
2023-02-24T09:25:49.719Z,52.83
2023-02-24T09:28:24.960Z,53.64
2023-02-24T09:30:56.227Z,53.77
2023-02-24T09:33:42.032Z,53.85
2023-02-24T09:36:27.789Z,54.02
2023-02-24T09:39:01.779Z,54.64
2023-02-24T09:41:57.687Z,53.50
2023-02-24T09:44:45.664Z,53.10
2023-02-24T09:47:39.720Z,51.84
2023-02-24T09:51:02.030Z,51.41
2023-02-24T09:53:52.601Z,50.68
2023-02-24T09:56:44.792Z,48.85
2023-02-24T09:59:51.213Z,47.87
2023-02-24T10:02:34.872Z,46.80
2023-02-24T10:05:15.568Z,46.95
2023-02-24T10:07:44.015Z,46.00
2023-02-24T10:10:29.661Z,48.09
2023-02-24T10:13:30.348Z,49.65
2023-02-24T10:16:07.339Z,48.73
2023-02-24T10:19:01.272Z,47.29
2023-02-24T10:22:02.952Z,47.33
2023-02-24T10:24:48.909Z,46.38
2023-02-24T10:27:33.367Z,45.42
2023-02-24T10:30:41.145Z,44.49
2023-02-24T10:33:37.779Z,46.16
2023-02-24T10:36:19.537Z,45.23
2023-02-24T10:38:46.759Z,45.56
2023-02-24T10:41:15.223Z,45.13
2023-02-24T10:43:56.784Z,45.07
2023-02-24T10:46:41.177Z,44.91
2023-02-24T10:49:16.531Z,45.11
2023-02-24T10:51:52.245Z,45.60
2023-02-24T10:54:45.176Z,45.96
2023-02-24T10:57:38.272Z,47.01
2023-02-24T11:00:31.025Z,47.50
2023-02-24T11:03:08.508Z,48.83
2023-02-24T11:06:04.957Z,48.86
2023-02-24T11:08:46.934Z,49.21
2023-02-24T11:11:30.056Z,49.82
2023-02-24T11:14:19.616Z,48.35
2023-02-24T11:17:13.929Z,48.52
2023-02-24T11:20:01.611Z,47.65
2023-02-24T11:22:36.494Z,47.55
2023-02-24T11:25:19.919Z,47.33
2023-02-24T11:27:47.619Z,47.36
2023-02-24T11:30:54.268Z,45.83
2023-02-24T11:33:35.426Z,44.84
2023-02-24T11:36:37.519Z,45.93
2023-02-24T11:39:53.602Z,48.14
2023-02-24T11:42:27.373Z,47.94
2023-02-24T11:45:11.593Z,47.87
2023-02-24T11:47:53.969Z,47.35
2023-02-24T11:50:55.669Z,46.18
2023-02-24T11:53:25.790Z,45.64
2023-02-24T11:56:11.416Z,46.37
2023-02-24T11:59:14.823Z,45.24
2023-02-24T12:01:57.236Z,45.13
2023-02-24T12:04:37.361Z,45.56
2023-02-24T12:07:38.897Z,46.93
2023-02-24T12:10:17.006Z,46.45
2023-02-24T12:12:51.264Z,46.86
2023-02-24T12:15:34.163Z,46.72
2023-02-24T12:18:15.301Z,47.45
2023-02-24T12:20:48.177Z,46.59
2023-02-24T12:23:23.164Z,46.30
2023-02-24T12:26:48.020Z,46.04
2023-02-24T12:29:42.395Z,48.72
2023-02-24T12:32:31.239Z,48.76
2023-02-24T12:35:53.889Z,50.13
2023-02-24T12:39:07.358Z,49.58
2023-02-24T12:42:06.253Z,50.03
2023-02-24T12:45:17.961Z,49.62
2023-02-24T12:48:18.766Z,50.21
2023-02-24T12:50:53.680Z,50.61
2023-02-24T12:53:34.662Z,49.45
2023-02-24T12:56:20.721Z,49.74
2023-02-24T12:58:53.138Z,50.69
2023-02-24T13:01:32.498Z,50.66
2023-02-24T13:04:11.510Z,50.73
2023-02-24T13:07:18.085Z,50.24
2023-02-24T13:10:03.146Z,50.04
2023-02-24T13:12:42.515Z,49.53
2023-02-24T13:15:26.668Z,49.59
2023-02-24T13:17:58.049Z,49.45
2023-02-24T13:20:34.471Z,49.08
2023-02-24T13:23:04.939Z,48.82
2023-02-24T13:25:37.501Z,48.24
2023-02-24T13:28:24.373Z,48.39
2023-02-24T13:31:08.752Z,48.18
2023-02-24T13:33:41.123Z,48.26
2023-02-24T13:36:22.610Z,47.74
2023-02-24T13:39:07.213Z,48.76
2023-02-24T13:41:37.936Z,48.93
2023-02-24T13:44:27.591Z,49.20
2023-02-24T13:47:13.055Z,49.59
2023-02-24T13:50:26.700Z,49.83
2023-02-24T13:53:25.543Z,49.58
2023-02-24T13:56:34.998Z,49.65
2023-02-24T13:59:53.525Z,49.07
2023-02-24T14:02:27.294Z,49.07
2023-02-24T14:04:58.603Z,48.71
2023-02-24T14:07:34.998Z,48.42
2023-02-24T14:10:14.699Z,48.63
2023-02-24T14:12:43.381Z,49.61
2023-02-24T14:15:20.916Z,51.44
2023-02-24T14:18:01.129Z,51.98
2023-02-24T14:20:37.996Z,52.29
2023-02-24T14:23:27.296Z,53.28
2023-02-24T14:26:06.975Z,53.12
2023-02-24T14:28:37.508Z,52.65
2023-02-24T14:31:10.132Z,53.37
2023-02-24T14:33:42.238Z,53.22
2023-02-24T14:36:24.384Z,52.86
2023-02-24T14:39:17.275Z,52.58
2023-02-24T14:41:46.072Z,52.23
2023-02-24T14:44:28.352Z,52.37
2023-02-24T14:47:03.537Z,52.85
2023-02-24T14:49:34.315Z,52.62
2023-02-24T14:52:26.603Z,52.39
2023-02-24T14:55:15.789Z,52.04
2023-02-24T14:57:51.286Z,51.57
2023-02-24T15:00:24.755Z,52.08
2023-02-24T15:03:19.089Z,52.63
2023-02-24T15:05:51.256Z,52.01
2023-02-24T15:08:49.512Z,51.28
2023-02-24T15:11:16.566Z,50.57
2023-02-24T15:13:52.907Z,51.19
2023-02-24T15:16:30.153Z,50.64
2023-02-24T15:19:01.262Z,50.94
2023-02-24T15:21:39.965Z,50.74
2023-02-24T15:24:27.917Z,50.90
2023-02-24T15:27:20.591Z,50.71
2023-02-24T15:30:02.098Z,49.98
2023-02-24T15:32:33.852Z,50.26
2023-02-24T15:35:01.933Z,50.61
2023-02-24T15:37:41.995Z,51.08
2023-02-24T15:40:22.425Z,51.44
2023-02-24T15:43:32.058Z,51.28
2023-02-24T15:45:59.280Z,50.87
2023-02-24T15:48:31.091Z,51.24
2023-02-24T15:51:04.855Z,51.04
2023-02-24T15:53:32.576Z,51.71
2023-02-24T15:55:59.708Z,51.53
2023-02-24T15:58:26.864Z,51.35
2023-02-24T16:00:54.411Z,51.35
2023-02-24T16:03:21.601Z,52.57
2023-02-24T16:05:48.889Z,53.22
2023-02-24T16:08:19.795Z,54.93
2023-02-24T16:10:50.372Z,55.42
2023-02-24T16:13:21.979Z,55.80
2023-02-24T16:15:50.410Z,55.70
2023-02-24T16:18:22.770Z,55.15
2023-02-24T16:20:57.268Z,55.64
2023-02-24T16:23:26.866Z,55.27
2023-02-24T16:25:59.618Z,54.54
2023-02-24T16:28:26.988Z,54.55
2023-02-24T16:30:55.894Z,54.99
2023-02-24T16:33:23.930Z,55.01
2023-02-24T16:35:54.634Z,55.78
2023-02-24T16:38:26.571Z,56.11
2023-02-24T16:40:55.105Z,56.43
2023-02-24T16:43:22.255Z,55.94
2023-02-24T16:45:49.880Z,57.24
2023-02-24T16:48:26.633Z,57.13
2023-02-24T16:50:53.872Z,57.36
2023-02-24T16:53:24.059Z,57.64
2023-02-24T16:55:51.792Z,57.39
2023-02-24T16:58:19.637Z,56.92
2023-02-24T17:00:49.922Z,56.66
2023-02-24T17:03:25.313Z,56.88
2023-02-24T17:05:53.513Z,56.63
2023-02-24T17:08:21.368Z,56.26
2023-02-24T17:10:49.518Z,57.24
2023-02-24T17:13:21.038Z,57.01
2023-02-24T17:15:55.104Z,57.63
2023-02-24T17:18:26.698Z,57.34
2023-02-24T17:20:54.408Z,57.45
2023-02-24T17:23:22.203Z,57.65
2023-02-24T17:25:54.695Z,57.68
2023-02-24T17:28:22.447Z,57.83
2023-02-24T17:30:49.739Z,57.86
2023-02-24T17:33:16.998Z,57.95
2023-02-24T17:35:47.138Z,58.48
2023-02-24T17:38:17.529Z,58.28
2023-02-24T17:40:46.354Z,58.16
2023-02-24T17:43:14.084Z,59.21
2023-02-24T17:45:44.929Z,58.90
2023-02-24T17:48:14.807Z,58.79
2023-02-24T17:50:46.787Z,59.33
2023-02-24T17:53:15.301Z,58.66
2023-02-24T17:56:01.020Z,58.88
2023-02-24T17:58:29.130Z,58.96
2023-02-24T18:00:56.521Z,60.18
2023-02-24T18:03:23.932Z,59.80
2023-02-24T18:06:04.273Z,59.52
2023-02-24T18:08:33.784Z,59.86
2023-02-24T18:11:01.911Z,59.47
2023-02-24T18:13:31.043Z,60.06
2023-02-24T18:15:58.904Z,60.14
2023-02-24T18:18:27.852Z,60.69
2023-02-24T18:21:01.718Z,60.07
2023-02-24T18:23:29.961Z,60.14
2023-02-24T18:25:57.295Z,60.58
2023-02-24T18:28:24.382Z,60.61
2023-02-24T18:30:51.568Z,60.05
2023-02-24T18:33:18.957Z,59.63
2023-02-24T18:35:46.125Z,60.38
2023-02-24T18:38:13.467Z,60.53
2023-02-24T18:40:40.613Z,60.04
2023-02-24T18:43:07.749Z,60.42
2023-02-24T18:45:35.174Z,60.97
2023-02-24T18:48:08.145Z,60.67
2023-02-24T18:50:35.516Z,60.63
2023-02-24T18:53:02.730Z,61.03
2023-02-24T18:55:30.106Z,61.01
2023-02-24T18:57:57.292Z,61.05
2023-02-24T19:00:24.542Z,61.12
2023-02-24T19:02:51.783Z,60.38
2023-02-24T19:05:20.626Z,60.38
2023-02-24T19:07:47.937Z,60.45
2023-02-24T19:10:15.289Z,61.09
2023-02-24T19:12:42.752Z,61.50
2023-02-24T19:15:10.456Z,61.22
2023-02-24T19:17:38.478Z,60.37
2023-02-24T19:20:07.371Z,60.11
2023-02-24T19:22:34.899Z,60.20
2023-02-24T19:25:02.618Z,60.81
2023-02-24T19:27:29.994Z,61.21
2023-02-24T19:29:57.788Z,61.10
2023-02-24T19:32:25.113Z,60.85
2023-02-24T19:34:52.364Z,60.57
2023-02-24T19:37:19.684Z,60.51
2023-02-24T19:39:47.082Z,60.29
2023-02-24T19:42:14.338Z,60.81
2023-02-24T19:44:41.615Z,61.46
2023-02-24T19:47:08.890Z,61.88
2023-02-24T19:49:36.164Z,62.00
2023-02-24T19:52:03.552Z,62.26
2023-02-24T19:54:30.748Z,62.51
2023-02-24T19:56:58.236Z,62.97
2023-02-24T19:59:25.580Z,62.35
2023-02-24T20:01:54.594Z,61.98
2023-02-24T20:04:23.319Z,62.11
2023-02-24T20:06:50.849Z,61.91
2023-02-24T20:09:21.612Z,62.15
2023-02-24T20:11:51.045Z,61.97
2023-02-24T20:14:20.249Z,61.79
2023-02-24T20:16:47.957Z,62.08
2023-02-24T20:19:16.123Z,61.91
2023-02-24T20:21:43.752Z,61.95
2023-02-24T20:24:14.512Z,62.17
2023-02-24T20:26:47.146Z,61.72
2023-02-24T20:29:16.533Z,62.29
2023-02-24T20:31:43.782Z,62.42
2023-02-24T20:34:11.208Z,62.30
2023-02-24T20:36:38.313Z,61.99
2023-02-24T20:39:06.849Z,61.43
2023-02-24T20:41:34.706Z,61.29
2023-02-24T20:44:01.978Z,61.04
2023-02-24T20:46:31.967Z,60.91
2023-02-24T20:49:04.170Z,60.80
2023-02-24T20:51:33.389Z,60.21
2023-02-24T20:54:00.880Z,59.98
2023-02-24T20:56:33.128Z,60.13
2023-02-24T20:59:06.352Z,60.21
2023-02-24T21:01:34.991Z,60.56
2023-02-24T21:04:03.717Z,60.30
2023-02-24T21:06:31.060Z,60.07
2023-02-24T21:08:58.899Z,59.71
2023-02-24T21:11:27.138Z,60.03
2023-02-24T21:13:54.342Z,60.60
2023-02-24T21:16:23.472Z,60.76
2023-02-24T21:18:53.210Z,60.43
2023-02-24T21:21:21.203Z,59.94
2023-02-24T21:23:50.350Z,59.83
2023-02-24T21:26:18.586Z,59.69
2023-02-24T21:28:46.433Z,59.72
2023-02-24T21:31:19.187Z,59.58
2023-02-24T21:33:51.910Z,59.74
2023-02-24T21:36:21.553Z,59.86
2023-02-24T21:38:49.429Z,59.52
2023-02-24T21:41:19.371Z,59.31
2023-02-24T21:43:47.482Z,59.00
2023-02-24T21:46:16.057Z,58.74
2023-02-24T21:48:43.456Z,58.79
2023-02-24T21:51:12.786Z,58.53
2023-02-24T21:53:43.861Z,58.23
2023-02-24T21:56:18.609Z,58.57
2023-02-24T21:59:06.718Z,57.94
2023-02-24T22:01:39.222Z,58.13
2023-02-24T22:04:14.100Z,58.17
2023-02-24T22:06:42.901Z,58.77
2023-02-24T22:09:11.731Z,58.76
2023-02-24T22:11:41.520Z,58.26
2023-02-24T22:14:12.014Z,58.82
2023-02-24T22:16:40.186Z,58.34
2023-02-24T22:19:07.558Z,57.95
2023-02-24T22:21:35.227Z,58.17
2023-02-24T22:24:03.845Z,58.25
2023-02-24T22:26:32.285Z,58.17
2023-02-24T22:29:01.502Z,58.33
2023-02-24T22:31:32.081Z,57.81
2023-02-24T22:34:00.182Z,58.12
2023-02-24T22:36:34.530Z,57.84
2023-02-24T22:39:03.038Z,58.11
2023-02-24T22:41:35.457Z,59.04
2023-02-24T22:44:05.190Z,60.19
2023-02-24T22:46:36.418Z,60.12
2023-02-24T22:49:04.966Z,60.52
2023-02-24T22:51:32.089Z,60.96
2023-02-24T22:53:59.358Z,61.19
2023-02-24T22:56:29.216Z,61.25
2023-02-24T22:58:56.977Z,60.92
2023-02-24T23:01:31.531Z,60.89
2023-02-24T23:04:05.163Z,61.30
2023-02-24T23:06:33.228Z,61.12
2023-02-24T23:09:02.486Z,60.99
2023-02-24T23:11:33.969Z,61.12
2023-02-24T23:14:06.080Z,61.19
2023-02-24T23:16:35.739Z,61.87
2023-02-24T23:19:13.116Z,62.16
2023-02-24T23:21:50.320Z,61.90
2023-02-24T23:24:19.289Z,61.58
2023-02-24T23:26:54.086Z,61.05
2023-02-24T23:29:24.175Z,61.15
2023-02-24T23:31:53.088Z,60.61
2023-02-24T23:34:20.508Z,60.41
2023-02-24T23:36:51.476Z,60.70
2023-02-24T23:39:23.220Z,60.94
2023-02-24T23:41:56.710Z,61.01
2023-02-24T23:44:25.053Z,61.52
2023-02-24T23:46:52.145Z,61.88
2023-02-24T23:49:19.245Z,62.03
2023-02-24T23:51:48.819Z,61.88
2023-02-24T23:54:18.384Z,63.15
2023-02-24T23:56:46.503Z,63.81
2023-02-24T23:59:13.882Z,63.67
